Terminal Aerodrome Forecast
Issued by NWS

Home | Current Version | Previous Version | Graphics & Text | Print | Product List | Glossary On
Versions: 1 2 3 4 5 6 7 8 9 10 11 12 13 14 15 16 17 18 19
000
FTUS43 KGRB 260520
TAFRHI
TAF
KRHI 260520Z 2606/2706 09004KT P6SM VCSH BKN060 BKN100
      TEMPO 2606/2610 4SM BR
     FM261400 15006KT P6SM BKN050
     FM262100 19007KT P6SM VCSH OVC040
     FM270300 21004KT P6SM VCSH BKN025=

USA.gov is the U.S. government's official web portal to all federal, state and local government web resources and services.